Strona główna
METAR-TAF:

METAR-TAF

Lotnisko :

Reims, Francja

Szerokość geograficzna: 49-12-31N, Długość geograficzna: 004-09-24E, wysokość: 95 m

Aktualna obserwacja pogody

Raport powstał 20 minut temu, godzina 05:30 UTC
Wiatr 8 kt od południe, zmienny między wschód i południowy zachód
Temperatura 12°C
Wilgotność 44%
Ciśnienie 1018 hPa
Widzialność 10 km lub więcej
Brak chmur poniżej 1500 m i brak chmur cumulonimbus

METAR: LFQA 060530Z AUTO 18008KT 090V230 CAVOK 12/M00 Q1018

czas: 07:50 (05:50 UTC)


TAF: brakujący

Obserwacja i prognoza pogody dla ponad 4000 lotnisk (raport METAR i TAF).

Dostępne stacje oznaczono żółtymi i czerwonymi punktami na mapie.

Najedź kursorem aby zobaczyć nazwę stacji.

Kliknij aby zobaczyć obserwacje i prognozy pogody.

Aby zmienić mapę: kliknij na zielony przycisk z czarnym krzyżykiem, aby powiększyć; na zielony przycisk z myślnikiem, aby pomniejszyć; na zielone strzałki, aby przejść do map sąsiednich.


METAR-TAF: